sensor_id;sensor_type;location;lat;lon;timestamp;temperature;humidity
5556;DHT22;2801;50.972;7.856;2023-07-08T00:01:17;13.50;99.90
5556;DHT22;2801;50.972;7.856;2023-07-08T00:03:46;13.40;99.90
5556;DHT22;2801;50.972;7.856;2023-07-08T00:08:49;13.40;99.90
5556;DHT22;2801;50.972;7.856;2023-07-08T00:11:17;13.30;99.90
5556;DHT22;2801;50.972;7.856;2023-07-08T00:13:45;13.40;99.90
5556;DHT22;2801;50.972;7.856;2023-07-08T00:16:15;13.40;99.90
5556;DHT22;2801;50.972;7.856;2023-07-08T00:18:46;13.40;99.90
5556;DHT22;2801;50.972;7.856;2023-07-08T00:21:15;13.30;99.90
5556;DHT22;2801;50.972;7.856;2023-07-08T00:23:44;13.30;99.90
5556;DHT22;2801;50.972;7.856;2023-07-08T00:26:25;13.20;99.90
5556;DHT22;2801;50.972;7.856;2023-07-08T00:28:55;13.20;99.90
5556;DHT22;2801;50.972;7.856;2023-07-08T00:31:23;13.20;99.90
5556;DHT22;2801;50.972;7.856;2023-07-08T00:33:54;13.20;99.90
5556;DHT22;2801;50.972;7.856;2023-07-08T00:36:27;13.20;99.90
5556;DHT22;2801;50.972;7.856;2023-07-08T00:38:58;13.10;99.90
5556;DHT22;2801;50.972;7.856;2023-07-08T00:41:32;13.10;99.90
5556;DHT22;2801;50.972;7.856;2023-07-08T00:44:01;13.10;99.90
5556;DHT22;2801;50.972;7.856;2023-07-08T00:49:03;13.00;99.90
5556;DHT22;2801;50.972;7.856;2023-07-08T00:51:36;13.00;99.90
5556;DHT22;2801;50.972;7.856;2023-07-08T00:54:15;12.90;99.90
5556;DHT22;2801;50.972;7.856;2023-07-08T00:56:51;12.90;99.90
5556;DHT22;2801;50.972;7.856;2023-07-08T00:59:28;12.90;99.90
5556;DHT22;2801;50.972;7.856;2023-07-08T01:02:01;12.90;99.90
5556;DHT22;2801;50.972;7.856;2023-07-08T01:04:40;12.90;99.90
5556;DHT22;2801;50.972;7.856;2023-07-08T01:07:15;12.80;99.90
5556;DHT22;2801;50.972;7.856;2023-07-08T01:09:54;12.80;99.90
5556;DHT22;2801;50.972;7.856;2023-07-08T01:12:29;12.70;99.90
5556;DHT22;2801;50.972;7.856;2023-07-08T01:15:01;12.70;99.90
5556;DHT22;2801;50.972;7.856;2023-07-08T01:17:29;12.60;99.90
5556;DHT22;2801;50.972;7.856;2023-07-08T01:20:00;12.60;99.90
5556;DHT22;2801;50.972;7.856;2023-07-08T01:22:35;12.60;99.90
5556;DHT22;2801;50.972;7.856;2023-07-08T01:25:03;12.60;99.90
5556;DHT22;2801;50.972;7.856;2023-07-08T01:27:35;12.50;99.90
5556;DHT22;2801;50.972;7.856;2023-07-08T01:30:05;12.50;99.90
5556;DHT22;2801;50.972;7.856;2023-07-08T01:32:47;12.50;99.90
5556;DHT22;2801;50.972;7.856;2023-07-08T01:35:16;12.50;99.90
5556;DHT22;2801;50.972;7.856;2023-07-08T01:37:57;12.50;99.90
5556;DHT22;2801;50.972;7.856;2023-07-08T01:42:57;12.50;99.90
5556;DHT22;2801;50.972;7.856;2023-07-08T01:45:28;12.50;99.90
5556;DHT22;2801;50.972;7.856;2023-07-08T01:48:05;12.40;99.90
5556;DHT22;2801;50.972;7.856;2023-07-08T01:50:57;12.40;99.90
5556;DHT22;2801;50.972;7.856;2023-07-08T01:53:35;12.40;99.90
5556;DHT22;2801;50.972;7.856;2023-07-08T01:56:04;12.40;99.90
5556;DHT22;2801;50.972;7.856;2023-07-08T01:58:31;12.40;99.90
5556;DHT22;2801;50.972;7.856;2023-07-08T02:00:58;12.40;99.90
5556;DHT22;2801;50.972;7.856;2023-07-08T02:03:27;12.50;99.90
5556;DHT22;2801;50.972;7.856;2023-07-08T02:05:55;12.40;99.90
5556;DHT22;2801;50.972;7.856;2023-07-08T02:08:23;12.40;99.90
5556;DHT22;2801;50.972;7.856;2023-07-08T02:10:55;12.50;99.90
5556;DHT22;2801;50.972;7.856;2023-07-08T02:13:24;12.40;99.90
5556;DHT22;2801;50.972;7.856;2023-07-08T02:15:52;12.50;99.90
5556;DHT22;2801;50.972;7.856;2023-07-08T02:18:19;12.50;99.90
5556;DHT22;2801;50.972;7.856;2023-07-08T02:20:47;12.50;99.90
5556;DHT22;2801;50.972;7.856;2023-07-08T02:23:14;12.50;99.90
5556;DHT22;2801;50.972;7.856;2023-07-08T02:25:43;12.60;99.90
5556;DHT22;2801;50.972;7.856;2023-07-08T02:28:20;12.30;99.90
5556;DHT22;2801;50.972;7.856;2023-07-08T02:30:47;12.30;99.90
5556;DHT22;2801;50.972;7.856;2023-07-08T02:33:14;12.20;99.90
5556;DHT22;2801;50.972;7.856;2023-07-08T02:35:44;12.20;99.90
5556;DHT22;2801;50.972;7.856;2023-07-08T02:38:12;12.20;99.90
5556;DHT22;2801;50.972;7.856;2023-07-08T02:40:39;12.30;99.90
5556;DHT22;2801;50.972;7.856;2023-07-08T02:43:06;12.00;99.90
5556;DHT22;2801;50.972;7.856;2023-07-08T02:45:33;11.90;99.90
5556;DHT22;2801;50.972;7.856;2023-07-08T02:48:00;11.90;99.90
5556;DHT22;2801;50.972;7.856;2023-07-08T02:50:27;11.80;99.90
5556;DHT22;2801;50.972;7.856;2023-07-08T02:52:53;11.90;99.90
5556;DHT22;2801;50.972;7.856;2023-07-08T02:55:20;11.60;99.90
5556;DHT22;2801;50.972;7.856;2023-07-08T02:57:47;11.60;99.90
5556;DHT22;2801;50.972;7.856;2023-07-08T03:00:14;11.50;99.90
5556;DHT22;2801;50.972;7.856;2023-07-08T03:02:42;11.60;99.90
5556;DHT22;2801;50.972;7.856;2023-07-08T03:05:09;11.60;99.90
5556;DHT22;2801;50.972;7.856;2023-07-08T03:07:35;11.60;99.90
5556;DHT22;2801;50.972;7.856;2023-07-08T03:10:02;11.70;99.90
5556;DHT22;2801;50.972;7.856;2023-07-08T03:12:30;11.70;99.90
5556;DHT22;2801;50.972;7.856;2023-07-08T03:14:57;11.70;99.90
5556;DHT22;2801;50.972;7.856;2023-07-08T03:17:24;11.70;99.90
5556;DHT22;2801;50.972;7.856;2023-07-08T03:19:51;11.70;99.90
5556;DHT22;2801;50.972;7.856;2023-07-08T03:22:18;11.70;99.90
5556;DHT22;2801;50.972;7.856;2023-07-08T03:24:45;11.80;99.90
5556;DHT22;2801;50.972;7.856;2023-07-08T03:27:16;11.80;99.90
5556;DHT22;2801;50.972;7.856;2023-07-08T03:29:43;11.80;99.90
5556;DHT22;2801;50.972;7.856;2023-07-08T03:32:11;11.80;99.90
5556;DHT22;2801;50.972;7.856;2023-07-08T03:34:38;11.80;99.90
5556;DHT22;2801;50.972;7.856;2023-07-08T03:37:06;11.80;99.90
5556;DHT22;2801;50.972;7.856;2023-07-08T03:39:33;11.90;99.90
5556;DHT22;2801;50.972;7.856;2023-07-08T03:42:00;11.90;99.90
5556;DHT22;2801;50.972;7.856;2023-07-08T03:44:27;11.90;99.90
5556;DHT22;2801;50.972;7.856;2023-07-08T03:46:54;12.00;99.90
5556;DHT22;2801;50.972;7.856;2023-07-08T03:49:23;12.00;99.90
5556;DHT22;2801;50.972;7.856;2023-07-08T03:51:52;12.00;99.90
5556;DHT22;2801;50.972;7.856;2023-07-08T03:54:22;12.10;99.90
5556;DHT22;2801;50.972;7.856;2023-07-08T03:56:51;12.10;99.90
5556;DHT22;2801;50.972;7.856;2023-07-08T03:59:19;12.10;99.90
5556;DHT22;2801;50.972;7.856;2023-07-08T04:01:46;12.20;99.90
5556;DHT22;2801;50.972;7.856;2023-07-08T04:04:15;12.20;99.90
5556;DHT22;2801;50.972;7.856;2023-07-08T04:06:43;12.30;99.90
5556;DHT22;2801;50.972;7.856;2023-07-08T04:09:11;12.30;99.90
5556;DHT22;2801;50.972;7.856;2023-07-08T04:11:39;12.40;99.90
5556;DHT22;2801;50.972;7.856;2023-07-08T04:14:07;12.50;99.90
5556;DHT22;2801;50.972;7.856;2023-07-08T04:19:15;12.60;99.90
5556;DHT22;2801;50.972;7.856;2023-07-08T04:21:44;12.70;99.90
5556;DHT22;2801;50.972;7.856;2023-07-08T04:24:13;12.70;99.90
5556;DHT22;2801;50.972;7.856;2023-07-08T04:26:41;12.80;99.90
5556;DHT22;2801;50.972;7.856;2023-07-08T04:29:11;12.80;99.90
5556;DHT22;2801;50.972;7.856;2023-07-08T04:31:45;12.90;99.90
5556;DHT22;2801;50.972;7.856;2023-07-08T04:34:14;12.90;99.90
5556;DHT22;2801;50.972;7.856;2023-07-08T04:36:43;12.90;99.90
5556;DHT22;2801;50.972;7.856;2023-07-08T04:39:11;13.00;99.90
5556;DHT22;2801;50.972;7.856;2023-07-08T04:41:39;12.90;99.90
5556;DHT22;2801;50.972;7.856;2023-07-08T04:44:08;13.00;99.90
5556;DHT22;2801;50.972;7.856;2023-07-08T04:46:41;13.10;99.90
5556;DHT22;2801;50.972;7.856;2023-07-08T04:49:18;13.10;99.90
5556;DHT22;2801;50.972;7.856;2023-07-08T04:51:45;13.10;99.90
5556;DHT22;2801;50.972;7.856;2023-07-08T04:54:15;13.20;99.90
5556;DHT22;2801;50.972;7.856;2023-07-08T04:56:45;13.20;99.90
5556;DHT22;2801;50.972;7.856;2023-07-08T04:59:19;13.20;99.90
5556;DHT22;2801;50.972;7.856;2023-07-08T05:01:48;13.20;99.90
5556;DHT22;2801;50.972;7.856;2023-07-08T05:04:18;13.20;99.90
5556;DHT22;2801;50.972;7.856;2023-07-08T05:06:47;13.20;99.90
5556;DHT22;2801;50.972;7.856;2023-07-08T05:09:14;13.30;99.90
5556;DHT22;2801;50.972;7.856;2023-07-08T05:11:43;13.60;99.90
5556;DHT22;2801;50.972;7.856;2023-07-08T05:14:12;14.20;99.90
5556;DHT22;2801;50.972;7.856;2023-07-08T05:16:40;15.00;99.90
5556;DHT22;2801;50.972;7.856;2023-07-08T05:19:07;15.90;99.90
5556;DHT22;2801;50.972;7.856;2023-07-08T05:21:34;16.80;99.90
5556;DHT22;2801;50.972;7.856;2023-07-08T05:24:03;17.40;99.90
5556;DHT22;2801;50.972;7.856;2023-07-08T05:26:32;17.70;99.90
5556;DHT22;2801;50.972;7.856;2023-07-08T05:29:00;17.90;99.90
5556;DHT22;2801;50.972;7.856;2023-07-08T05:31:27;18.10;99.90
5556;DHT22;2801;50.972;7.856;2023-07-08T05:34:13;18.30;99.90
5556;DHT22;2801;50.972;7.856;2023-07-08T05:36:41;18.60;99.90
5556;DHT22;2801;50.972;7.856;2023-07-08T05:39:09;18.90;99.90
5556;DHT22;2801;50.972;7.856;2023-07-08T05:41:36;19.20;99.90
5556;DHT22;2801;50.972;7.856;2023-07-08T05:44:03;19.50;99.90
5556;DHT22;2801;50.972;7.856;2023-07-08T05:46:30;19.70;99.90
5556;DHT22;2801;50.972;7.856;2023-07-08T05:48:57;20.00;99.90
5556;DHT22;2801;50.972;7.856;2023-07-08T05:51:27;20.20;99.90
5556;DHT22;2801;50.972;7.856;2023-07-08T05:53:54;20.60;99.90
5556;DHT22;2801;50.972;7.856;2023-07-08T05:56:21;20.80;99.90
5556;DHT22;2801;50.972;7.856;2023-07-08T05:58:48;21.00;99.90
5556;DHT22;2801;50.972;7.856;2023-07-08T06:01:15;21.10;99.90
5556;DHT22;2801;50.972;7.856;2023-07-08T06:03:42;21.40;99.90
5556;DHT22;2801;50.972;7.856;2023-07-08T06:06:09;21.60;99.90
5556;DHT22;2801;50.972;7.856;2023-07-08T06:08:36;21.80;99.90
5556;DHT22;2801;50.972;7.856;2023-07-08T06:11:03;22.10;99.60
5556;DHT22;2801;50.972;7.856;2023-07-08T06:13:30;22.20;98.90
5556;DHT22;2801;50.972;7.856;2023-07-08T06:15:57;22.40;98.90
5556;DHT22;2801;50.972;7.856;2023-07-08T06:18:24;22.50;98.80
5556;DHT22;2801;50.972;7.856;2023-07-08T06:20:56;22.60;99.10
5556;DHT22;2801;50.972;7.856;2023-07-08T06:23:25;22.60;99.10
5556;DHT22;2801;50.972;7.856;2023-07-08T06:25:52;22.70;99.20
5556;DHT22;2801;50.972;7.856;2023-07-08T06:28:19;22.80;98.90
5556;DHT22;2801;50.972;7.856;2023-07-08T06:30:48;22.80;98.70
5556;DHT22;2801;50.972;7.856;2023-07-08T06:33:16;22.90;98.50
5556;DHT22;2801;50.972;7.856;2023-07-08T06:35:43;23.00;98.20
5556;DHT22;2801;50.972;7.856;2023-07-08T06:38:12;23.10;97.60
5556;DHT22;2801;50.972;7.856;2023-07-08T06:40:39;23.20;97.40
5556;DHT22;2801;50.972;7.856;2023-07-08T06:43:06;23.40;97.20
5556;DHT22;2801;50.972;7.856;2023-07-08T06:45:33;23.60;96.90
5556;DHT22;2801;50.972;7.856;2023-07-08T06:48:01;23.80;96.40
5556;DHT22;2801;50.972;7.856;2023-07-08T06:50:28;23.90;95.40
5556;DHT22;2801;50.972;7.856;2023-07-08T06:52:55;24.10;95.00
5556;DHT22;2801;50.972;7.856;2023-07-08T06:55:22;24.40;94.80
5556;DHT22;2801;50.972;7.856;2023-07-08T06:57:49;24.60;94.80
5556;DHT22;2801;50.972;7.856;2023-07-08T07:00:16;24.90;94.10
5556;DHT22;2801;50.972;7.856;2023-07-08T07:02:43;25.20;93.50
5556;DHT22;2801;50.972;7.856;2023-07-08T07:05:10;25.40;92.60
5556;DHT22;2801;50.972;7.856;2023-07-08T07:07:37;25.50;91.70
5556;DHT22;2801;50.972;7.856;2023-07-08T07:10:04;25.60;91.20
5556;DHT22;2801;50.972;7.856;2023-07-08T07:12:34;25.50;90.60
5556;DHT22;2801;50.972;7.856;2023-07-08T07:15:01;25.40;90.10
5556;DHT22;2801;50.972;7.856;2023-07-08T07:17:30;25.50;89.30
5556;DHT22;2801;50.972;7.856;2023-07-08T07:19:57;25.70;87.90
5556;DHT22;2801;50.972;7.856;2023-07-08T07:22:24;25.90;87.30
5556;DHT22;2801;50.972;7.856;2023-07-08T07:24:51;26.10;86.10
5556;DHT22;2801;50.972;7.856;2023-07-08T07:27:18;26.50;84.80
5556;DHT22;2801;50.972;7.856;2023-07-08T07:29:50;26.70;82.70
5556;DHT22;2801;50.972;7.856;2023-07-08T07:32:26;27.10;81.70
5556;DHT22;2801;50.972;7.856;2023-07-08T07:34:55;27.60;78.60
5556;DHT22;2801;50.972;7.856;2023-07-08T07:37:55;28.00;76.30
5556;DHT22;2801;50.972;7.856;2023-07-08T07:40:22;28.40;75.40
5556;DHT22;2801;50.972;7.856;2023-07-08T07:42:49;28.80;74.30
5556;DHT22;2801;50.972;7.856;2023-07-08T07:45:40;29.10;73.00
5556;DHT22;2801;50.972;7.856;2023-07-08T07:48:07;29.10;72.50
5556;DHT22;2801;50.972;7.856;2023-07-08T07:50:34;29.00;71.40
5556;DHT22;2801;50.972;7.856;2023-07-08T07:53:26;28.80;72.30
5556;DHT22;2801;50.972;7.856;2023-07-08T07:55:58;28.60;73.90
5556;DHT22;2801;50.972;7.856;2023-07-08T08:01:34;28.00;72.50
5556;DHT22;2801;50.972;7.856;2023-07-08T08:04:32;27.90;74.40
5556;DHT22;2801;50.972;7.856;2023-07-08T08:06:59;27.80;75.60
5556;DHT22;2801;50.972;7.856;2023-07-08T08:09:26;27.80;76.00
5556;DHT22;2801;50.972;7.856;2023-07-08T08:12:18;27.80;75.50
5556;DHT22;2801;50.972;7.856;2023-07-08T08:14:45;27.80;73.90
5556;DHT22;2801;50.972;7.856;2023-07-08T08:17:12;28.20;71.60
5556;DHT22;2801;50.972;7.856;2023-07-08T08:20:04;28.50;69.30
5556;DHT22;2801;50.972;7.856;2023-07-08T08:22:32;28.80;67.90
5556;DHT22;2801;50.972;7.856;2023-07-08T08:24:59;28.90;68.20
5556;DHT22;2801;50.972;7.856;2023-07-08T08:27:45;28.90;67.80
5556;DHT22;2801;50.972;7.856;2023-07-08T08:30:12;28.80;68.10
5556;DHT22;2801;50.972;7.856;2023-07-08T08:32:39;29.00;68.60
5556;DHT22;2801;50.972;7.856;2023-07-08T08:35:35;29.10;67.40
5556;DHT22;2801;50.972;7.856;2023-07-08T08:38:03;29.40;65.00
5556;DHT22;2801;50.972;7.856;2023-07-08T08:40:31;29.40;64.40
5556;DHT22;2801;50.972;7.856;2023-07-08T08:43:23;29.30;64.10
5556;DHT22;2801;50.972;7.856;2023-07-08T08:53:20;28.60;65.10
5556;DHT22;2801;50.972;7.856;2023-07-08T08:55:56;28.40;65.30
5556;DHT22;2801;50.972;7.856;2023-07-08T09:02:25;28.30;65.80
5556;DHT22;2801;50.972;7.856;2023-07-08T09:05:29;28.60;67.10
5556;DHT22;2801;50.972;7.856;2023-07-08T09:08:16;28.90;64.70
5556;DHT22;2801;50.972;7.856;2023-07-08T09:14:35;29.00;64.60
5556;DHT22;2801;50.972;7.856;2023-07-08T09:20:27;29.10;64.80
5556;DHT22;2801;50.972;7.856;2023-07-08T09:23:35;29.10;65.40
5556;DHT22;2801;50.972;7.856;2023-07-08T09:26:34;29.10;64.60
5556;DHT22;2801;50.972;7.856;2023-07-08T09:29:08;29.10;64.00
5556;DHT22;2801;50.972;7.856;2023-07-08T09:35:27;29.10;64.90
5556;DHT22;2801;50.972;7.856;2023-07-08T09:38:08;29.20;64.80
5556;DHT22;2801;50.972;7.856;2023-07-08T09:40:59;29.30;64.70
5556;DHT22;2801;50.972;7.856;2023-07-08T09:43:33;29.40;64.90
5556;DHT22;2801;50.972;7.856;2023-07-08T09:46:36;29.50;64.50
5556;DHT22;2801;50.972;7.856;2023-07-08T09:49:51;29.70;63.80
5556;DHT22;2801;50.972;7.856;2023-07-08T09:52:20;29.80;63.80
5556;DHT22;2801;50.972;7.856;2023-07-08T09:54:48;30.10;61.40
5556;DHT22;2801;50.972;7.856;2023-07-08T09:57:52;30.40;61.10
5556;DHT22;2801;50.972;7.856;2023-07-08T10:00:55;30.60;60.90
5556;DHT22;2801;50.972;7.856;2023-07-08T10:03:30;30.60;61.10
5556;DHT22;2801;50.972;7.856;2023-07-08T10:06:28;30.80;60.70
5556;DHT22;2801;50.972;7.856;2023-07-08T10:09:11;31.50;59.60
5556;DHT22;2801;50.972;7.856;2023-07-08T10:11:52;32.40;58.30
5556;DHT22;2801;50.972;7.856;2023-07-08T10:14:48;33.00;56.60
5556;DHT22;2801;50.972;7.856;2023-07-08T10:17:20;33.40;56.10
5556;DHT22;2801;50.972;7.856;2023-07-08T10:19:48;33.70;54.40
5556;DHT22;2801;50.972;7.856;2023-07-08T10:25:11;34.90;52.70
5556;DHT22;2801;50.972;7.856;2023-07-08T10:27:55;35.50;51.50
5556;DHT22;2801;50.972;7.856;2023-07-08T10:30:40;35.70;50.60
5556;DHT22;2801;50.972;7.856;2023-07-08T10:36:42;35.10;50.90
5556;DHT22;2801;50.972;7.856;2023-07-08T10:45:38;33.40;52.50
5556;DHT22;2801;50.972;7.856;2023-07-08T10:48:46;32.90;52.90
5556;DHT22;2801;50.972;7.856;2023-07-08T10:51:20;33.00;52.00
5556;DHT22;2801;50.972;7.856;2023-07-08T11:01:07;35.90;48.70
5556;DHT22;2801;50.972;7.856;2023-07-08T11:10:22;35.10;48.40
5556;DHT22;2801;50.972;7.856;2023-07-08T11:13:11;35.20;49.00
5556;DHT22;2801;50.972;7.856;2023-07-08T11:16:02;35.10;48.50
5556;DHT22;2801;50.972;7.856;2023-07-08T11:18:46;34.80;49.90
5556;DHT22;2801;50.972;7.856;2023-07-08T11:21:24;34.40;51.20
5556;DHT22;2801;50.972;7.856;2023-07-08T11:26:47;33.70;51.70
5556;DHT22;2801;50.972;7.856;2023-07-08T11:29:42;33.30;53.20
5556;DHT22;2801;50.972;7.856;2023-07-08T11:32:17;33.00;53.50
5556;DHT22;2801;50.972;7.856;2023-07-08T11:34:49;32.70;54.20
5556;DHT22;2801;50.972;7.856;2023-07-08T11:37:19;32.50;53.80
5556;DHT22;2801;50.972;7.856;2023-07-08T11:40:07;32.40;53.50
5556;DHT22;2801;50.972;7.856;2023-07-08T11:42:47;32.20;53.80
5556;DHT22;2801;50.972;7.856;2023-07-08T11:45:38;32.10;54.20
5556;DHT22;2801;50.972;7.856;2023-07-08T11:48:12;32.20;54.70
5556;DHT22;2801;50.972;7.856;2023-07-08T11:50:57;32.10;54.70
5556;DHT22;2801;50.972;7.856;2023-07-08T11:55:59;32.00;53.70
5556;DHT22;2801;50.972;7.856;2023-07-08T12:08:59;32.20;53.50
5556;DHT22;2801;50.972;7.856;2023-07-08T12:11:44;32.10;52.50
5556;DHT22;2801;50.972;7.856;2023-07-08T12:14:13;32.00;52.70
5556;DHT22;2801;50.972;7.856;2023-07-08T12:16:41;32.00;53.50
5556;DHT22;2801;50.972;7.856;2023-07-08T12:19:37;32.00;54.40
5556;DHT22;2801;50.972;7.856;2023-07-08T12:22:09;32.10;53.40
5556;DHT22;2801;50.972;7.856;2023-07-08T12:25:16;32.20;53.30
5556;DHT22;2801;50.972;7.856;2023-07-08T12:27:46;32.20;52.70
5556;DHT22;2801;50.972;7.856;2023-07-08T12:30:45;32.20;52.70
5556;DHT22;2801;50.972;7.856;2023-07-08T12:34:04;32.30;54.30
5556;DHT22;2801;50.972;7.856;2023-07-08T12:36:38;32.50;52.90
5556;DHT22;2801;50.972;7.856;2023-07-08T12:39:37;32.50;53.10
5556;DHT22;2801;50.972;7.856;2023-07-08T12:42:09;32.50;52.50
5556;DHT22;2801;50.972;7.856;2023-07-08T12:45:16;32.60;52.20
5556;DHT22;2801;50.972;7.856;2023-07-08T12:47:49;32.70;52.10
5556;DHT22;2801;50.972;7.856;2023-07-08T12:50:41;32.80;52.10
5556;DHT22;2801;50.972;7.856;2023-07-08T12:53:14;32.90;51.80
5556;DHT22;2801;50.972;7.856;2023-07-08T12:56:12;32.90;51.80
5556;DHT22;2801;50.972;7.856;2023-07-08T12:58:43;33.00;51.70
5556;DHT22;2801;50.972;7.856;2023-07-08T13:01:47;33.10;51.80
5556;DHT22;2801;50.972;7.856;2023-07-08T13:04:16;33.20;51.70
5556;DHT22;2801;50.972;7.856;2023-07-08T13:07:23;33.20;51.50
5556;DHT22;2801;50.972;7.856;2023-07-08T13:09:59;33.20;51.40
5556;DHT22;2801;50.972;7.856;2023-07-08T13:12:53;33.20;51.60
5556;DHT22;2801;50.972;7.856;2023-07-08T13:15:34;33.40;51.20
5556;DHT22;2801;50.972;7.856;2023-07-08T13:18:40;33.30;50.20
5556;DHT22;2801;50.972;7.856;2023-07-08T13:21:42;33.20;50.30
5556;DHT22;2801;50.972;7.856;2023-07-08T13:24:11;33.20;51.70
5556;DHT22;2801;50.972;7.856;2023-07-08T13:26:39;33.20;51.40
5556;DHT22;2801;50.972;7.856;2023-07-08T13:29:52;33.30;51.30
5556;DHT22;2801;50.972;7.856;2023-07-08T13:32:48;33.40;51.50
5556;DHT22;2801;50.972;7.856;2023-07-08T13:35:23;33.40;51.30
5556;DHT22;2801;50.972;7.856;2023-07-08T13:38:19;33.50;50.60
5556;DHT22;2801;50.972;7.856;2023-07-08T13:40:53;33.60;51.50
5556;DHT22;2801;50.972;7.856;2023-07-08T13:43:50;33.70;51.20
5556;DHT22;2801;50.972;7.856;2023-07-08T13:46:37;33.90;50.90
5556;DHT22;2801;50.972;7.856;2023-07-08T13:49:44;34.00;51.30
5556;DHT22;2801;50.972;7.856;2023-07-08T13:52:43;34.10;51.10
5556;DHT22;2801;50.972;7.856;2023-07-08T13:55:17;34.10;51.10
5556;DHT22;2801;50.972;7.856;2023-07-08T13:58:17;34.10;51.90
5556;DHT22;2801;50.972;7.856;2023-07-08T14:00:45;34.20;51.00
5556;DHT22;2801;50.972;7.856;2023-07-08T14:03:13;34.30;51.20
5556;DHT22;2801;50.972;7.856;2023-07-08T14:06:22;34.40;51.40
5556;DHT22;2801;50.972;7.856;2023-07-08T14:09:20;34.60;51.20
5556;DHT22;2801;50.972;7.856;2023-07-08T14:11:50;34.70;51.00
5556;DHT22;2801;50.972;7.856;2023-07-08T14:14:18;34.70;51.30
5556;DHT22;2801;50.972;7.856;2023-07-08T14:17:24;34.80;49.80
5556;DHT22;2801;50.972;7.856;2023-07-08T14:20:24;34.80;50.20
5556;DHT22;2801;50.972;7.856;2023-07-08T14:22:54;34.80;49.80
5556;DHT22;2801;50.972;7.856;2023-07-08T14:25:21;34.80;50.50
5556;DHT22;2801;50.972;7.856;2023-07-08T14:28:23;34.90;50.50
5556;DHT22;2801;50.972;7.856;2023-07-08T14:30:50;35.10;50.60
5556;DHT22;2801;50.972;7.856;2023-07-08T14:36:13;35.10;49.30
5556;DHT22;2801;50.972;7.856;2023-07-08T14:38:41;35.20;50.40
5556;DHT22;2801;50.972;7.856;2023-07-08T14:41:45;35.30;50.40
5556;DHT22;2801;50.972;7.856;2023-07-08T14:44:49;35.30;50.40
5556;DHT22;2801;50.972;7.856;2023-07-08T14:47:18;35.30;50.00
5556;DHT22;2801;50.972;7.856;2023-07-08T14:50:21;35.20;50.60
5556;DHT22;2801;50.972;7.856;2023-07-08T14:52:48;35.10;51.50
5556;DHT22;2801;50.972;7.856;2023-07-08T14:55:15;35.00;50.90
5556;DHT22;2801;50.972;7.856;2023-07-08T14:58:03;34.90;50.50
5556;DHT22;2801;50.972;7.856;2023-07-08T15:00:31;34.80;50.40
5556;DHT22;2801;50.972;7.856;2023-07-08T15:02:59;34.60;50.20
5556;DHT22;2801;50.972;7.856;2023-07-08T15:05:55;34.40;51.10
5556;DHT22;2801;50.972;7.856;2023-07-08T15:08:22;34.30;52.30
5556;DHT22;2801;50.972;7.856;2023-07-08T15:11:23;34.20;53.00
5556;DHT22;2801;50.972;7.856;2023-07-08T15:13:52;34.10;53.10
5556;DHT22;2801;50.972;7.856;2023-07-08T15:16:19;34.00;53.60
5556;DHT22;2801;50.972;7.856;2023-07-08T15:19:10;33.80;53.70
5556;DHT22;2801;50.972;7.856;2023-07-08T15:21:41;33.80;54.10
5556;DHT22;2801;50.972;7.856;2023-07-08T15:24:39;33.70;53.60
5556;DHT22;2801;50.972;7.856;2023-07-08T15:27:10;33.80;54.50
5556;DHT22;2801;50.972;7.856;2023-07-08T15:30:16;33.80;54.80
5556;DHT22;2801;50.972;7.856;2023-07-08T15:32:45;33.90;54.30
5556;DHT22;2801;50.972;7.856;2023-07-08T15:35:21;33.80;54.20
5556;DHT22;2801;50.972;7.856;2023-07-08T15:38:12;33.80;53.40
5556;DHT22;2801;50.972;7.856;2023-07-08T15:40:39;33.80;54.50
5556;DHT22;2801;50.972;7.856;2023-07-08T15:43:12;33.90;53.20
5556;DHT22;2801;50.972;7.856;2023-07-08T15:45:41;34.00;53.10
5556;DHT22;2801;50.972;7.856;2023-07-08T15:48:18;34.00;53.90
5556;DHT22;2801;50.972;7.856;2023-07-08T15:50:45;33.70;54.40
5556;DHT22;2801;50.972;7.856;2023-07-08T15:53:14;33.40;55.70
5556;DHT22;2801;50.972;7.856;2023-07-08T15:55:44;33.00;58.30
5556;DHT22;2801;50.972;7.856;2023-07-08T15:58:27;32.80;59.60
5556;DHT22;2801;50.972;7.856;2023-07-08T16:00:59;32.90;58.80
5556;DHT22;2801;50.972;7.856;2023-07-08T16:03:31;33.10;59.30
5556;DHT22;2801;50.972;7.856;2023-07-08T16:06:01;33.30;59.70
5556;DHT22;2801;50.972;7.856;2023-07-08T16:08:28;33.30;57.10
5556;DHT22;2801;50.972;7.856;2023-07-08T16:11:02;33.10;55.80
5556;DHT22;2801;50.972;7.856;2023-07-08T16:13:33;33.00;56.70
5556;DHT22;2801;50.972;7.856;2023-07-08T16:16:01;32.80;56.60
5556;DHT22;2801;50.972;7.856;2023-07-08T16:18:29;32.60;58.10
5556;DHT22;2801;50.972;7.856;2023-07-08T16:20:56;32.40;59.90
5556;DHT22;2801;50.972;7.856;2023-07-08T16:23:23;32.30;61.70
5556;DHT22;2801;50.972;7.856;2023-07-08T16:25:51;32.20;63.80
5556;DHT22;2801;50.972;7.856;2023-07-08T16:28:37;32.20;65.30
5556;DHT22;2801;50.972;7.856;2023-07-08T16:31:20;32.20;67.20
5556;DHT22;2801;50.972;7.856;2023-07-08T16:33:49;32.20;66.40
5556;DHT22;2801;50.972;7.856;2023-07-08T16:36:29;32.20;66.80
5556;DHT22;2801;50.972;7.856;2023-07-08T16:38:55;32.20;67.30
5556;DHT22;2801;50.972;7.856;2023-07-08T16:41:25;32.40;65.70
5556;DHT22;2801;50.972;7.856;2023-07-08T16:47:43;32.70;61.90
5556;DHT22;2801;50.972;7.856;2023-07-08T16:50:15;32.80;62.70
5556;DHT22;2801;50.972;7.856;2023-07-08T16:52:44;32.90;61.30
5556;DHT22;2801;50.972;7.856;2023-07-08T16:55:18;32.80;61.20
5556;DHT22;2801;50.972;7.856;2023-07-08T16:57:46;32.70;62.70
5556;DHT22;2801;50.972;7.856;2023-07-08T17:00:16;32.50;64.50
5556;DHT22;2801;50.972;7.856;2023-07-08T17:02:47;32.30;64.70
5556;DHT22;2801;50.972;7.856;2023-07-08T17:05:19;31.90;64.40
5556;DHT22;2801;50.972;7.856;2023-07-08T17:07:49;31.60;65.80
5556;DHT22;2801;50.972;7.856;2023-07-08T17:10:17;31.10;65.40
5556;DHT22;2801;50.972;7.856;2023-07-08T17:12:45;30.80;65.70
5556;DHT22;2801;50.972;7.856;2023-07-08T17:15:15;30.60;66.60
5556;DHT22;2801;50.972;7.856;2023-07-08T17:17:51;30.30;67.50
5556;DHT22;2801;50.972;7.856;2023-07-08T17:20:31;30.10;67.90
5556;DHT22;2801;50.972;7.856;2023-07-08T17:23:11;29.80;68.70
5556;DHT22;2801;50.972;7.856;2023-07-08T17:25:39;29.50;70.10
5556;DHT22;2801;50.972;7.856;2023-07-08T17:28:06;29.20;71.10
5556;DHT22;2801;50.972;7.856;2023-07-08T17:30:34;28.90;73.20
5556;DHT22;2801;50.972;7.856;2023-07-08T17:33:02;28.50;75.00
5556;DHT22;2801;50.972;7.856;2023-07-08T17:35:29;28.20;76.70
5556;DHT22;2801;50.972;7.856;2023-07-08T17:37:56;27.90;77.20
5556;DHT22;2801;50.972;7.856;2023-07-08T17:40:26;27.80;78.20
5556;DHT22;2801;50.972;7.856;2023-07-08T17:42:55;27.60;79.40
5556;DHT22;2801;50.972;7.856;2023-07-08T17:45:27;27.50;80.90
5556;DHT22;2801;50.972;7.856;2023-07-08T17:47:59;27.40;82.20
5556;DHT22;2801;50.972;7.856;2023-07-08T17:50:34;27.20;82.70
5556;DHT22;2801;50.972;7.856;2023-07-08T17:53:01;27.00;83.60
5556;DHT22;2801;50.972;7.856;2023-07-08T17:55:28;26.80;84.20
5556;DHT22;2801;50.972;7.856;2023-07-08T17:57:55;26.60;85.00
5556;DHT22;2801;50.972;7.856;2023-07-08T18:00:26;26.40;86.10
5556;DHT22;2801;50.972;7.856;2023-07-08T18:02:56;26.30;86.30
5556;DHT22;2801;50.972;7.856;2023-07-08T18:05:25;26.20;86.70
5556;DHT22;2801;50.972;7.856;2023-07-08T18:07:53;26.20;87.30
5556;DHT22;2801;50.972;7.856;2023-07-08T18:10:22;26.10;87.80
5556;DHT22;2801;50.972;7.856;2023-07-08T18:12:53;26.00;86.50
5556;DHT22;2801;50.972;7.856;2023-07-08T18:17:51;26.00;86.90